createdAt,value
2022-10-30T00:07:11.349Z,15.72
2022-10-30T00:17:13.159Z,16.44
2022-10-30T00:27:15.352Z,18.34
2022-10-30T00:37:17.567Z,19.03
2022-10-30T00:47:38.179Z,19.43
2022-10-30T00:57:41.178Z,18.13
2022-10-30T01:07:44.821Z,17.67
2022-10-30T01:17:56.147Z,19.45
2022-10-30T01:28:04.540Z,18.30
2022-10-30T01:38:09.421Z,18.11
2022-10-30T01:48:36.531Z,19.85
2022-10-30T01:58:55.166Z,18.63
2022-10-30T02:08:58.202Z,18.33
2022-10-30T02:19:00.138Z,20.02
2022-10-30T02:29:02.113Z,18.66
2022-10-30T02:39:04.067Z,15.92
2022-10-30T02:49:06.083Z,16.71
2022-10-30T02:59:08.362Z,19.12
2022-10-30T03:09:10.358Z,20.01
2022-10-30T03:19:12.206Z,18.76
2022-10-30T03:29:14.207Z,15.91
2022-10-30T03:39:16.124Z,16.91
2022-10-30T03:49:18.962Z,19.19
2022-10-30T03:59:21.147Z,20.07
2022-10-30T04:09:39.674Z,18.69
2022-10-30T04:19:41.561Z,15.89
2022-10-30T04:29:44.970Z,16.96
2022-10-30T04:39:49.474Z,19.20
2022-10-30T04:49:55.596Z,18.34
2022-10-30T04:59:58.778Z,18.05
2022-10-30T05:10:00.858Z,19.82
2022-10-30T05:20:02.923Z,18.65
2022-10-30T05:30:05.284Z,15.97
2022-10-30T05:40:08.006Z,17.04
2022-10-30T05:50:12.414Z,19.40
2022-10-30T06:00:22.456Z,20.42
2022-10-30T06:10:25.199Z,19.24
2022-10-30T06:20:40.987Z,16.65
2022-10-30T06:31:01.902Z,17.89
2022-10-30T06:41:05.943Z,20.24
2022-10-30T06:51:26.887Z,19.34
2022-10-30T07:01:29.804Z,17.11
2022-10-30T07:11:36.555Z,18.58
2022-10-30T07:22:10.474Z,21.19
2022-10-30T07:32:16.543Z,20.99
2022-10-30T07:42:26.506Z,19.29
2022-10-30T07:52:47.055Z,18.68
2022-10-30T08:02:57.568Z,20.55
2022-10-30T08:13:14.454Z,21.90
2022-10-30T08:23:17.952Z,20.31
2022-10-30T08:33:20.633Z,19.44
2022-10-30T08:43:31.548Z,18.71
2022-10-30T08:53:35.503Z,20.74
2022-10-30T09:03:39.930Z,22.03
2022-10-30T09:14:00.770Z,20.42
2022-10-30T09:24:02.881Z,19.71
2022-10-30T09:34:10.865Z,19.47
2022-10-30T09:44:23.698Z,19.17
2022-10-30T09:54:40.157Z,19.11
2022-10-30T10:04:51.604Z,18.94
2022-10-30T10:15:28.624Z,18.52
2022-10-30T10:25:32.975Z,17.95
2022-10-30T10:35:37.975Z,17.47
2022-10-30T10:45:52.058Z,17.07
2022-10-30T10:56:02.587Z,19.31
2022-10-30T11:06:23.900Z,20.34
2022-10-30T11:16:45.438Z,19.38
2022-10-30T11:26:47.291Z,19.06
2022-10-30T11:36:53.810Z,18.42
2022-10-30T11:46:56.835Z,17.57
2022-10-30T11:56:59.202Z,17.05
2022-10-30T12:07:31.293Z,16.68
2022-10-30T12:17:33.462Z,16.64
2022-10-30T12:27:38.805Z,16.78
2022-10-30T12:37:43.858Z,19.29
2022-10-30T12:48:20.369Z,20.32
2022-10-30T12:58:26.511Z,18.46
2022-10-30T13:09:10.524Z,17.33
2022-10-30T13:19:13.866Z,16.40
2022-10-30T13:29:34.484Z,15.89
2022-10-30T13:39:36.467Z,18.08
2022-10-30T13:49:51.296Z,20.91
2022-10-30T13:59:53.178Z,20.39
2022-10-30T14:10:03.068Z,18.18
2022-10-30T14:20:12.172Z,19.29
2022-10-30T14:30:20.014Z,19.51
2022-10-30T14:40:46.560Z,17.22
2022-10-30T14:51:25.574Z,18.43
2022-10-30T15:01:33.947Z,18.64
2022-10-30T15:12:03.213Z,16.37
2022-10-30T15:22:05.182Z,17.61
2022-10-30T15:32:18.950Z,19.76
2022-10-30T15:42:21.660Z,18.72
2022-10-30T15:52:29.834Z,16.22
2022-10-30T16:02:33.135Z,17.41
2022-10-30T16:12:35.730Z,19.60
2022-10-30T16:22:40.042Z,18.59
2022-10-30T16:32:55.760Z,16.02
2022-10-30T16:43:00.908Z,17.16
2022-10-30T16:53:24.273Z,19.46
2022-10-30T17:03:29.545Z,18.38
2022-10-30T17:13:39.969Z,15.73
2022-10-30T17:23:46.617Z,16.66
2022-10-30T17:34:20.468Z,18.86
2022-10-30T17:44:23.716Z,17.63
2022-10-30T17:54:25.962Z,14.98
2022-10-30T18:04:28.108Z,15.96
2022-10-30T18:14:30.311Z,18.08
2022-10-30T18:24:32.253Z,16.99
2022-10-30T18:34:34.293Z,14.19
2022-10-30T18:44:36.362Z,15.17
2022-10-30T18:54:38.242Z,17.54
2022-10-30T19:04:40.171Z,16.68
2022-10-30T19:14:42.219Z,14.09
2022-10-30T19:24:44.250Z,15.00
2022-10-30T19:34:49.272Z,16.98
2022-10-30T19:44:51.523Z,16.14
2022-10-30T19:54:53.363Z,13.78
2022-10-30T20:04:55.253Z,14.80
2022-10-30T20:15:06.699Z,16.99
2022-10-30T20:25:09.313Z,16.02
2022-10-30T20:35:13.620Z,13.49
2022-10-30T20:45:18.354Z,14.19
2022-10-30T20:55:21.167Z,16.06
2022-10-30T21:05:42.781Z,15.08
2022-10-30T21:15:45.827Z,12.48
2022-10-30T21:25:47.775Z,13.47
2022-10-30T21:35:49.599Z,15.35
2022-10-30T21:45:51.610Z,14.23
2022-10-30T21:55:53.454Z,11.79
2022-10-30T22:05:55.351Z,12.57
2022-10-30T22:15:57.362Z,14.50
2022-10-30T22:26:01.395Z,15.16
2022-10-30T22:36:09.312Z,13.95
2022-10-30T22:46:12.408Z,11.41
2022-10-30T22:56:18.743Z,12.12
2022-10-30T23:06:23.640Z,14.07
2022-10-30T23:16:27.340Z,14.85
2022-10-30T23:26:32.848Z,13.90
2022-10-30T23:36:35.383Z,11.17
2022-10-30T23:46:37.366Z,9.68
2022-10-30T23:56:39.194Z,11.56
